sensor_id;sensor_type;location;lat;lon;timestamp;P1;durP1;ratioP1;P2;durP2;ratioP2
27863;SDS011;15980;51.092;13.916;2023-08-20T00:07:15;18.40;;;13.45;;
27863;SDS011;15980;51.092;13.916;2023-08-20T00:17:16;15.45;;;10.93;;
27863;SDS011;15980;51.092;13.916;2023-08-20T00:27:16;16.45;;;11.90;;
27863;SDS011;15980;51.092;13.916;2023-08-20T00:37:16;16.63;;;11.95;;
27863;SDS011;15980;51.092;13.916;2023-08-20T00:47:17;17.58;;;11.57;;
27863;SDS011;15980;51.092;13.916;2023-08-20T00:57:18;17.20;;;12.37;;
27863;SDS011;15980;51.092;13.916;2023-08-20T01:17:38;14.05;;;11.32;;
27863;SDS011;15980;51.092;13.916;2023-08-20T01:38:03;17.75;;;11.75;;
27863;SDS011;15980;51.092;13.916;2023-08-20T01:48:04;16.75;;;11.45;;
27863;SDS011;15980;51.092;13.916;2023-08-20T01:58:04;14.38;;;10.90;;
27863;SDS011;15980;51.092;13.916;2023-08-20T02:08:05;14.07;;;10.68;;
27863;SDS011;15980;51.092;13.916;2023-08-20T02:18:05;16.92;;;11.32;;
27863;SDS011;15980;51.092;13.916;2023-08-20T02:28:05;17.60;;;12.43;;
27863;SDS011;15980;51.092;13.916;2023-08-20T02:38:06;16.08;;;10.98;;
27863;SDS011;15980;51.092;13.916;2023-08-20T02:48:06;15.98;;;11.70;;
27863;SDS011;15980;51.092;13.916;2023-08-20T02:58:06;14.80;;;11.55;;
27863;SDS011;15980;51.092;13.916;2023-08-20T03:08:07;16.90;;;11.32;;
27863;SDS011;15980;51.092;13.916;2023-08-20T03:18:07;13.65;;;9.73;;
27863;SDS011;15980;51.092;13.916;2023-08-20T03:28:07;13.57;;;8.23;;
27863;SDS011;15980;51.092;13.916;2023-08-20T03:38:08;16.08;;;8.48;;
27863;SDS011;15980;51.092;13.916;2023-08-20T03:48:08;14.02;;;8.00;;
27863;SDS011;15980;51.092;13.916;2023-08-20T03:58:08;12.07;;;7.93;;
27863;SDS011;15980;51.092;13.916;2023-08-20T04:08:08;12.65;;;8.30;;
27863;SDS011;15980;51.092;13.916;2023-08-20T04:18:09;12.10;;;7.93;;
27863;SDS011;15980;51.092;13.916;2023-08-20T04:28:09;13.55;;;9.65;;
27863;SDS011;15980;51.092;13.916;2023-08-20T04:38:09;14.80;;;9.27;;
27863;SDS011;15980;51.092;13.916;2023-08-20T04:48:09;16.55;;;10.10;;
27863;SDS011;15980;51.092;13.916;2023-08-20T04:58:10;18.55;;;11.45;;
27863;SDS011;15980;51.092;13.916;2023-08-20T05:08:10;17.33;;;10.60;;
27863;SDS011;15980;51.092;13.916;2023-08-20T05:18:10;18.08;;;11.27;;
27863;SDS011;15980;51.092;13.916;2023-08-20T05:28:11;17.73;;;10.13;;
27863;SDS011;15980;51.092;13.916;2023-08-20T05:38:11;12.60;;;9.73;;
27863;SDS011;15980;51.092;13.916;2023-08-20T05:48:11;20.13;;;9.65;;
27863;SDS011;15980;51.092;13.916;2023-08-20T05:58:11;18.08;;;9.68;;
27863;SDS011;15980;51.092;13.916;2023-08-20T06:08:12;16.63;;;9.88;;
27863;SDS011;15980;51.092;13.916;2023-08-20T06:18:12;13.27;;;9.45;;
27863;SDS011;15980;51.092;13.916;2023-08-20T06:28:12;14.23;;;9.63;;
27863;SDS011;15980;51.092;13.916;2023-08-20T06:38:13;12.70;;;9.18;;
27863;SDS011;15980;51.092;13.916;2023-08-20T06:48:13;13.63;;;8.50;;
27863;SDS011;15980;51.092;13.916;2023-08-20T06:58:13;14.48;;;9.27;;
27863;SDS011;15980;51.092;13.916;2023-08-20T07:08:13;15.10;;;9.00;;
27863;SDS011;15980;51.092;13.916;2023-08-20T07:18:14;15.88;;;8.27;;
27863;SDS011;15980;51.092;13.916;2023-08-20T07:28:14;14.40;;;9.10;;
27863;SDS011;15980;51.092;13.916;2023-08-20T07:38:14;12.77;;;9.65;;
27863;SDS011;15980;51.092;13.916;2023-08-20T07:48:15;16.73;;;9.50;;
27863;SDS011;15980;51.092;13.916;2023-08-20T07:58:15;14.43;;;9.13;;
27863;SDS011;15980;51.092;13.916;2023-08-20T08:08:16;14.15;;;8.10;;
27863;SDS011;15980;51.092;13.916;2023-08-20T08:18:18;13.07;;;9.55;;
27863;SDS011;15980;51.092;13.916;2023-08-20T08:28:20;13.75;;;8.93;;
27863;SDS011;15980;51.092;13.916;2023-08-20T08:38:21;11.23;;;8.20;;
27863;SDS011;15980;51.092;13.916;2023-08-20T08:48:21;12.43;;;8.30;;
27863;SDS011;15980;51.092;13.916;2023-08-20T08:58:21;11.10;;;8.17;;
27863;SDS011;15980;51.092;13.916;2023-08-20T09:08:22;11.17;;;8.73;;
27863;SDS011;15980;51.092;13.916;2023-08-20T09:18:26;15.60;;;8.10;;
27863;SDS011;15980;51.092;13.916;2023-08-20T09:28:26;16.13;;;10.15;;
27863;SDS011;15980;51.092;13.916;2023-08-20T09:38:29;15.88;;;10.70;;
27863;SDS011;15980;51.092;13.916;2023-08-20T09:48:31;16.52;;;11.18;;
27863;SDS011;15980;51.092;13.916;2023-08-20T09:58:34;15.50;;;10.70;;
27863;SDS011;15980;51.092;13.916;2023-08-20T10:08:36;15.32;;;10.95;;
27863;SDS011;15980;51.092;13.916;2023-08-20T10:18:38;15.88;;;10.52;;
27863;SDS011;15980;51.092;13.916;2023-08-20T10:38:40;15.63;;;9.97;;
27863;SDS011;15980;51.092;13.916;2023-08-20T10:48:40;18.35;;;10.45;;
27863;SDS011;15980;51.092;13.916;2023-08-20T10:58:42;15.18;;;9.82;;
27863;SDS011;15980;51.092;13.916;2023-08-20T11:08:47;18.67;;;9.73;;
27863;SDS011;15980;51.092;13.916;2023-08-20T11:18:47;14.07;;;8.57;;
27863;SDS011;15980;51.092;13.916;2023-08-20T11:28:48;12.77;;;9.25;;
27863;SDS011;15980;51.092;13.916;2023-08-20T11:38:51;10.17;;;7.23;;
27863;SDS011;15980;51.092;13.916;2023-08-20T11:59:06;7.82;;;4.65;;
27863;SDS011;15980;51.092;13.916;2023-08-20T12:09:20;10.00;;;4.90;;
27863;SDS011;15980;51.092;13.916;2023-08-20T12:19:24;8.52;;;4.60;;
27863;SDS011;15980;51.092;13.916;2023-08-20T12:29:25;9.60;;;5.63;;
27863;SDS011;15980;51.092;13.916;2023-08-20T12:39:25;8.80;;;5.67;;
27863;SDS011;15980;51.092;13.916;2023-08-20T12:49:25;9.20;;;5.43;;
27863;SDS011;15980;51.092;13.916;2023-08-20T12:59:25;11.80;;;6.88;;
27863;SDS011;15980;51.092;13.916;2023-08-20T13:09:26;11.32;;;5.78;;
27863;SDS011;15980;51.092;13.916;2023-08-20T13:19:26;7.68;;;5.57;;
27863;SDS011;15980;51.092;13.916;2023-08-20T13:29:26;10.23;;;6.18;;
27863;SDS011;15980;51.092;13.916;2023-08-20T13:39:27;7.07;;;5.63;;
27863;SDS011;15980;51.092;13.916;2023-08-20T13:49:27;11.13;;;6.47;;
27863;SDS011;15980;51.092;13.916;2023-08-20T13:59:27;10.25;;;5.93;;
27863;SDS011;15980;51.092;13.916;2023-08-20T14:09:27;10.85;;;6.32;;
27863;SDS011;15980;51.092;13.916;2023-08-20T14:19:28;9.65;;;5.60;;
27863;SDS011;15980;51.092;13.916;2023-08-20T14:29:28;9.45;;;5.90;;
27863;SDS011;15980;51.092;13.916;2023-08-20T14:39:29;9.63;;;5.93;;
27863;SDS011;15980;51.092;13.916;2023-08-20T14:49:29;7.78;;;6.38;;
27863;SDS011;15980;51.092;13.916;2023-08-20T14:59:29;13.23;;;6.38;;
27863;SDS011;15980;51.092;13.916;2023-08-20T15:09:29;9.80;;;5.85;;
27863;SDS011;15980;51.092;13.916;2023-08-20T15:19:30;9.65;;;5.97;;
27863;SDS011;15980;51.092;13.916;2023-08-20T15:29:30;11.60;;;6.60;;
27863;SDS011;15980;51.092;13.916;2023-08-20T15:39:32;9.75;;;5.60;;
27863;SDS011;15980;51.092;13.916;2023-08-20T15:49:33;8.65;;;6.07;;
27863;SDS011;15980;51.092;13.916;2023-08-20T15:59:34;10.68;;;6.68;;
27863;SDS011;15980;51.092;13.916;2023-08-20T16:09:35;9.82;;;6.93;;
27863;SDS011;15980;51.092;13.916;2023-08-20T16:19:35;11.63;;;7.43;;
27863;SDS011;15980;51.092;13.916;2023-08-20T16:29:36;9.30;;;7.07;;
27863;SDS011;15980;51.092;13.916;2023-08-20T16:39:36;10.32;;;7.68;;
27863;SDS011;15980;51.092;13.916;2023-08-20T16:49:38;7.78;;;5.20;;
27863;SDS011;15980;51.092;13.916;2023-08-20T16:59:40;7.18;;;4.55;;
27863;SDS011;15980;51.092;13.916;2023-08-20T17:09:40;9.33;;;4.93;;
27863;SDS011;15980;51.092;13.916;2023-08-20T17:19:40;7.60;;;4.70;;
27863;SDS011;15980;51.092;13.916;2023-08-20T17:29:41;6.67;;;4.50;;
27863;SDS011;15980;51.092;13.916;2023-08-20T17:39:41;6.23;;;4.53;;
27863;SDS011;15980;51.092;13.916;2023-08-20T17:49:41;4.70;;;3.60;;
27863;SDS011;15980;51.092;13.916;2023-08-20T17:59:42;9.68;;;4.50;;
27863;SDS011;15980;51.092;13.916;2023-08-20T18:09:42;12.25;;;7.20;;
27863;SDS011;15980;51.092;13.916;2023-08-20T18:19:42;6.47;;;4.35;;
27863;SDS011;15980;51.092;13.916;2023-08-20T18:29:44;7.85;;;4.90;;
27863;SDS011;15980;51.092;13.916;2023-08-20T18:49:44;10.00;;;5.47;;
27863;SDS011;15980;51.092;13.916;2023-08-20T18:59:44;6.70;;;4.53;;
27863;SDS011;15980;51.092;13.916;2023-08-20T19:09:45;8.38;;;5.05;;
27863;SDS011;15980;51.092;13.916;2023-08-20T19:19:45;17.80;;;7.95;;
27863;SDS011;15980;51.092;13.916;2023-08-20T19:29:45;10.57;;;6.65;;
27863;SDS011;15980;51.092;13.916;2023-08-20T19:39:45;11.23;;;6.25;;
27863;SDS011;15980;51.092;13.916;2023-08-20T19:49:46;6.53;;;5.35;;
27863;SDS011;15980;51.092;13.916;2023-08-20T19:59:46;9.05;;;6.03;;
27863;SDS011;15980;51.092;13.916;2023-08-20T20:09:46;16.60;;;6.30;;
27863;SDS011;15980;51.092;13.916;2023-08-20T20:19:47;8.90;;;6.55;;
27863;SDS011;15980;51.092;13.916;2023-08-20T20:29:47;10.77;;;6.38;;
27863;SDS011;15980;51.092;13.916;2023-08-20T20:39:47;13.93;;;7.45;;
27863;SDS011;15980;51.092;13.916;2023-08-20T20:49:48;12.77;;;7.70;;
27863;SDS011;15980;51.092;13.916;2023-08-20T20:59:48;17.08;;;9.23;;
27863;SDS011;15980;51.092;13.916;2023-08-20T21:09:48;15.65;;;9.07;;
27863;SDS011;15980;51.092;13.916;2023-08-20T21:19:50;16.02;;;9.82;;
27863;SDS011;15980;51.092;13.916;2023-08-20T21:29:51;14.27;;;9.35;;
27863;SDS011;15980;51.092;13.916;2023-08-20T21:39:51;13.80;;;9.63;;
27863;SDS011;15980;51.092;13.916;2023-08-20T21:59:54;16.42;;;8.48;;
27863;SDS011;15980;51.092;13.916;2023-08-20T22:09:55;17.27;;;10.45;;
27863;SDS011;15980;51.092;13.916;2023-08-20T22:19:55;13.23;;;9.00;;
27863;SDS011;15980;51.092;13.916;2023-08-20T22:29:55;13.13;;;8.45;;
27863;SDS011;15980;51.092;13.916;2023-08-20T22:39:56;11.85;;;8.10;;
27863;SDS011;15980;51.092;13.916;2023-08-20T22:49:56;14.52;;;9.77;;
27863;SDS011;15980;51.092;13.916;2023-08-20T22:59:56;11.07;;;7.63;;
27863;SDS011;15980;51.092;13.916;2023-08-20T23:09:57;13.65;;;7.60;;
27863;SDS011;15980;51.092;13.916;2023-08-20T23:19:57;11.65;;;7.78;;
27863;SDS011;15980;51.092;13.916;2023-08-20T23:29:58;14.05;;;8.02;;
27863;SDS011;15980;51.092;13.916;2023-08-20T23:39:58;11.05;;;7.95;;
27863;SDS011;15980;51.092;13.916;2023-08-20T23:49:58;14.73;;;8.32;;
27863;SDS011;15980;51.092;13.916;2023-08-20T23:59:58;11.57;;;8.13;;
